createdAt,value
2018-10-15T00:00:58.517Z,10.73
2018-10-15T00:01:58.496Z,10.78
2018-10-15T00:02:58.471Z,10.84
2018-10-15T00:03:58.448Z,10.95
2018-10-15T00:04:58.426Z,11.06
2018-10-15T00:05:58.404Z,10.95
2018-10-15T00:06:58.380Z,10.99
2018-10-15T00:07:58.357Z,11.03
2018-10-15T00:08:58.337Z,11.07
2018-10-15T00:09:58.311Z,11.02
2018-10-15T00:10:58.286Z,11.01
2018-10-15T00:11:58.263Z,10.94
2018-10-15T00:12:58.240Z,10.94
2018-10-15T00:13:58.218Z,10.91
2018-10-15T00:14:58.194Z,10.99
2018-10-15T00:15:58.170Z,11.03
2018-10-15T00:16:58.146Z,11.01
2018-10-15T00:17:58.124Z,11.07
2018-10-15T00:18:58.102Z,11.13
2018-10-15T00:19:58.077Z,11.14
2018-10-15T00:20:58.058Z,11.10
2018-10-15T00:21:58.032Z,11.09
2018-10-15T00:22:58.010Z,11.02
2018-10-15T00:23:57.985Z,10.98
2018-10-15T00:24:57.963Z,10.86
2018-10-15T00:25:57.940Z,10.76
2018-10-15T00:26:57.917Z,10.71
2018-10-15T00:27:57.893Z,10.66
2018-10-15T00:28:57.870Z,10.58
2018-10-15T00:29:57.848Z,10.59
2018-10-15T00:30:57.825Z,10.62
2018-10-15T00:31:57.801Z,10.62
2018-10-15T00:32:57.777Z,10.74
2018-10-15T00:33:57.754Z,10.68
2018-10-15T00:34:57.732Z,10.71
2018-10-15T00:35:58.460Z,10.77
2018-10-15T00:36:57.684Z,10.78
2018-10-15T00:37:57.661Z,10.94
2018-10-15T00:38:57.638Z,10.95
2018-10-15T00:39:57.614Z,11.06
2018-10-15T00:40:57.591Z,11.03
2018-10-15T00:41:57.568Z,10.99
2018-10-15T00:42:57.545Z,10.96
2018-10-15T00:43:57.521Z,11.03
2018-10-15T00:44:57.498Z,10.95
2018-10-15T00:45:57.480Z,10.88
2018-10-15T00:46:57.452Z,10.83
2018-10-15T00:47:57.428Z,10.83
2018-10-15T00:48:57.406Z,10.80
2018-10-15T00:49:57.382Z,10.73
2018-10-15T00:50:57.359Z,10.83
2018-10-15T00:51:57.335Z,10.73
2018-10-15T00:52:57.312Z,10.77
2018-10-15T00:53:57.294Z,10.70
2018-10-15T00:54:57.266Z,10.80
2018-10-15T00:55:57.242Z,10.77
2018-10-15T00:56:57.319Z,10.80
2018-10-15T00:57:57.195Z,10.71
2018-10-15T00:58:57.174Z,10.81
2018-10-15T00:59:57.149Z,10.89
2018-10-15T01:00:57.126Z,10.81
2018-10-15T01:01:57.104Z,10.98
2018-10-15T01:02:57.081Z,10.89
2018-10-15T01:03:57.262Z,10.92
2018-10-15T01:04:57.033Z,10.84
2018-10-15T01:05:57.011Z,10.63
2018-10-15T01:06:56.987Z,10.63
2018-10-15T01:07:56.964Z,10.63
2018-10-15T01:08:56.940Z,10.62
2018-10-15T01:09:56.918Z,10.70
2018-10-15T01:10:56.895Z,10.56
2018-10-15T01:11:56.870Z,10.52
2018-10-15T01:12:56.850Z,10.52
2018-10-15T01:13:56.824Z,10.52
2018-10-15T01:14:56.800Z,10.46
2018-10-15T01:15:56.776Z,10.39
2018-10-15T01:16:56.754Z,10.52
2018-10-15T01:17:56.732Z,10.51
2018-10-15T01:18:56.714Z,10.52
2018-10-15T01:19:56.686Z,10.53
2018-10-15T01:20:56.661Z,10.52
2018-10-15T01:21:56.638Z,10.47
2018-10-15T01:22:56.614Z,10.52
2018-10-15T01:23:56.591Z,10.46
2018-10-15T01:24:56.566Z,10.58
2018-10-15T01:25:56.543Z,10.63
2018-10-15T01:26:56.521Z,10.59
2018-10-15T01:27:56.496Z,10.62
2018-10-15T01:28:56.473Z,10.53
2018-10-15T01:29:56.451Z,10.56
2018-10-15T01:30:56.426Z,10.55
2018-10-15T01:31:56.402Z,10.55
2018-10-15T01:32:56.388Z,10.47
2018-10-15T01:33:56.358Z,10.52
2018-10-15T01:34:56.333Z,10.51
2018-10-15T01:35:56.311Z,10.52
2018-10-15T01:36:56.285Z,10.51
2018-10-15T01:37:56.263Z,10.42
2018-10-15T01:38:56.239Z,10.53
2018-10-15T01:39:56.215Z,10.43
2018-10-15T01:40:56.943Z,10.42
2018-10-15T01:41:56.173Z,10.53
2018-10-15T01:42:56.147Z,10.37
2018-10-15T01:43:56.122Z,10.42
2018-10-15T01:44:56.101Z,10.33
2018-10-15T01:45:56.075Z,10.39
2018-10-15T01:46:56.054Z,10.39
2018-10-15T01:47:56.030Z,10.51
2018-10-15T01:48:56.006Z,10.40
2018-10-15T01:49:55.982Z,10.40
2018-10-15T01:50:55.958Z,10.36
2018-10-15T01:51:55.935Z,10.26
2018-10-15T01:52:55.912Z,10.18
2018-10-15T01:53:55.891Z,10.17
2018-10-15T01:54:55.865Z,10.06
2018-10-15T01:55:55.842Z,10.10
2018-10-15T01:56:55.818Z,10.09
2018-10-15T01:57:55.796Z,10.14
2018-10-15T01:58:55.772Z,10.06
2018-10-15T01:59:55.747Z,10.06
2018-10-15T02:00:55.724Z,10.15
2018-10-15T02:01:55.701Z,10.32
2018-10-15T02:02:55.679Z,10.37
2018-10-15T02:03:55.654Z,10.51
2018-10-15T02:04:55.630Z,10.47
2018-10-15T02:05:55.608Z,10.59
2018-10-15T02:06:55.583Z,10.71
2018-10-15T02:07:55.559Z,10.71
2018-10-15T02:08:55.536Z,10.78
2018-10-15T02:09:55.513Z,10.83
2018-10-15T02:10:55.489Z,10.78
2018-10-15T02:11:55.465Z,10.71
2018-10-15T02:12:55.442Z,10.80
2018-10-15T02:13:55.418Z,10.76
2018-10-15T02:14:55.395Z,10.68
2018-10-15T02:15:55.371Z,10.60
2018-10-15T02:16:55.351Z,10.59
2018-10-15T02:17:55.324Z,10.53
2018-10-15T02:18:55.301Z,10.58
2018-10-15T02:19:55.278Z,10.58
2018-10-15T02:20:55.254Z,10.51
2018-10-15T02:21:55.230Z,10.40
2018-10-15T02:22:55.208Z,10.39
2018-10-15T02:23:55.187Z,10.44
2018-10-15T02:24:55.160Z,10.40
2018-10-15T02:25:55.136Z,10.43
2018-10-15T02:26:55.112Z,10.52
2018-10-15T02:27:55.089Z,10.53
2018-10-15T02:28:55.067Z,10.34
2018-10-15T02:29:55.043Z,10.52
2018-10-15T02:30:55.020Z,10.40
2018-10-15T02:31:54.995Z,10.40
2018-10-15T02:32:54.970Z,10.40
2018-10-15T02:33:54.947Z,10.43
2018-10-15T02:34:54.925Z,10.40
2018-10-15T02:35:54.900Z,10.37
2018-10-15T02:36:54.877Z,10.28
2018-10-15T02:37:54.853Z,10.19
2018-10-15T02:38:54.835Z,10.19
2018-10-15T02:39:54.805Z,10.09
2018-10-15T02:40:54.781Z,10.10
2018-10-15T02:41:54.760Z,10.03
2018-10-15T02:42:54.736Z,9.91
2018-10-15T02:43:54.710Z,9.94
2018-10-15T02:44:54.687Z,9.83
2018-10-15T02:45:54.663Z,9.81
2018-10-15T02:46:54.640Z,9.85
2018-10-15T02:47:54.616Z,9.88
2018-10-15T02:48:54.593Z,9.81
2018-10-15T02:49:54.569Z,9.83
2018-10-15T02:50:54.545Z,9.97
2018-10-15T02:51:54.521Z,9.86
2018-10-15T02:52:54.497Z,9.89
2018-10-15T02:53:54.474Z,9.83
2018-10-15T02:54:54.451Z,9.83
2018-10-15T02:55:54.426Z,9.83
2018-10-15T02:56:54.403Z,9.76
2018-10-15T02:57:54.379Z,9.82
2018-10-15T02:58:54.356Z,9.82
2018-10-15T02:59:54.331Z,9.71
2018-10-15T03:00:54.308Z,9.76
2018-10-15T03:01:54.287Z,9.81
2018-10-15T03:02:54.260Z,9.79
2018-10-15T03:03:54.239Z,9.83
2018-10-15T03:04:54.212Z,9.83
2018-10-15T03:05:54.939Z,9.83
2018-10-15T03:06:54.165Z,9.78
2018-10-15T03:07:54.141Z,9.83
2018-10-15T03:08:54.117Z,9.76
2018-10-15T03:09:54.093Z,9.71
2018-10-15T03:10:54.071Z,9.67
2018-10-15T03:11:54.046Z,9.71
2018-10-15T03:12:54.029Z,9.71
2018-10-15T03:13:53.999Z,9.68
2018-10-15T03:14:53.976Z,9.75
2018-10-15T03:15:53.950Z,9.75
2018-10-15T03:16:53.926Z,9.68
2018-10-15T03:17:53.902Z,9.68
2018-10-15T03:18:53.882Z,9.73
2018-10-15T03:19:53.873Z,9.73
2018-10-15T03:20:53.830Z,9.85
2018-10-15T03:21:53.808Z,9.83
2018-10-15T03:22:53.788Z,9.89
2018-10-15T03:23:53.759Z,9.83
2018-10-15T03:24:53.735Z,9.78
2018-10-15T03:25:53.713Z,9.88
2018-10-15T03:26:53.689Z,9.78
2018-10-15T03:27:53.664Z,9.79
2018-10-15T03:28:53.643Z,9.75
2018-10-15T03:29:53.617Z,9.81
2018-10-15T03:30:53.594Z,9.75
2018-10-15T03:31:53.570Z,9.71
2018-10-15T03:32:54.297Z,9.71
2018-10-15T03:33:53.523Z,9.71
2018-10-15T03:34:53.499Z,9.71
2018-10-15T03:35:53.475Z,9.64
2018-10-15T03:36:53.450Z,9.58
2018-10-15T03:37:53.427Z,9.60
2018-10-15T03:38:53.403Z,9.60
2018-10-15T03:39:53.378Z,9.61
2018-10-15T03:40:53.354Z,9.70
2018-10-15T03:41:53.331Z,9.63
2018-10-15T03:42:53.307Z,9.63
2018-10-15T03:43:53.283Z,9.67
2018-10-15T03:44:53.259Z,9.64
2018-10-15T03:45:53.235Z,9.67
2018-10-15T03:46:53.211Z,9.61
2018-10-15T03:47:53.187Z,9.67
2018-10-15T03:48:53.164Z,9.58
2018-10-15T03:49:53.140Z,9.52
2018-10-15T03:50:53.117Z,9.52
2018-10-15T03:51:53.093Z,9.63
2018-10-15T03:52:53.070Z,9.73
2018-10-15T03:53:53.048Z,9.73
2018-10-15T03:54:53.021Z,9.85
2018-10-15T03:55:52.996Z,9.82
2018-10-15T03:56:52.972Z,9.93
2018-10-15T03:57:52.953Z,9.89
2018-10-15T03:58:52.925Z,10.00
2018-10-15T03:59:52.901Z,9.97
2018-10-15T04:00:52.877Z,9.96
2018-10-15T04:01:52.853Z,9.97
2018-10-15T04:02:52.829Z,10.00
2018-10-15T04:03:52.806Z,10.07
2018-10-15T04:04:52.781Z,9.96
2018-10-15T04:05:52.758Z,9.88
2018-10-15T04:06:52.734Z,9.88
2018-10-15T04:07:52.709Z,9.93
2018-10-15T04:08:52.686Z,9.85
2018-10-15T04:09:52.661Z,9.73
2018-10-15T04:10:52.642Z,9.71
2018-10-15T04:11:52.613Z,9.76
2018-10-15T04:12:52.590Z,9.71
2018-10-15T04:13:52.568Z,9.68
2018-10-15T04:14:52.545Z,9.61
2018-10-15T04:15:52.517Z,9.64
2018-10-15T04:16:52.493Z,9.67
2018-10-15T04:17:52.470Z,9.53
2018-10-15T04:18:52.446Z,9.66
2018-10-15T04:19:52.421Z,9.58
2018-10-15T04:20:52.397Z,9.67
2018-10-15T04:21:52.374Z,9.75
2018-10-15T04:22:52.350Z,9.75
2018-10-15T04:23:52.327Z,9.71
2018-10-15T04:24:52.302Z,9.73
2018-10-15T04:25:52.278Z,9.75
2018-10-15T04:26:52.256Z,9.78
2018-10-15T04:27:52.230Z,9.70
2018-10-15T04:28:52.205Z,9.64
2018-10-15T04:29:52.183Z,9.73
2018-10-15T04:30:52.161Z,9.68
2018-10-15T04:31:52.133Z,9.61
2018-10-15T04:32:52.111Z,9.66
2018-10-15T04:33:52.086Z,9.68
2018-10-15T04:34:52.063Z,9.64
2018-10-15T04:35:52.042Z,9.66
2018-10-15T04:36:52.015Z,9.71
2018-10-15T04:37:52.045Z,9.68
2018-10-15T04:38:51.968Z,9.68
2018-10-15T04:39:51.949Z,9.79
2018-10-15T04:40:51.918Z,9.81
2018-10-15T04:41:51.895Z,9.93
2018-10-15T04:42:51.871Z,10.04
2018-10-15T04:43:51.847Z,10.17
2018-10-15T04:44:51.823Z,10.26
2018-10-15T04:45:51.799Z,10.36
2018-10-15T04:46:51.775Z,10.26
2018-10-15T04:47:51.750Z,10.34
2018-10-15T04:48:51.783Z,10.32
2018-10-15T04:49:51.720Z,10.30
2018-10-15T04:50:51.679Z,10.28
2018-10-15T04:51:51.654Z,10.24
2018-10-15T04:52:51.631Z,10.15
2018-10-15T04:53:51.607Z,10.21
2018-10-15T04:54:51.585Z,10.18
2018-10-15T04:55:51.560Z,10.15
2018-10-15T04:56:51.537Z,10.07
2018-10-15T04:57:51.522Z,10.15
2018-10-15T04:58:51.490Z,10.26
2018-10-15T04:59:51.463Z,10.30
2018-10-15T05:00:51.440Z,10.28
2018-10-15T05:01:51.416Z,10.42
2018-10-15T05:02:51.393Z,10.40
2018-10-15T05:03:51.367Z,10.53
2018-10-15T05:04:51.343Z,10.46
2018-10-15T05:05:51.320Z,10.47
2018-10-15T05:06:51.296Z,10.51
2018-10-15T05:07:51.273Z,10.52
2018-10-15T05:08:51.249Z,10.53
2018-10-15T05:09:51.235Z,10.52
2018-10-15T05:10:51.202Z,10.56
2018-10-15T05:11:51.176Z,10.53
2018-10-15T05:12:51.152Z,10.52
2018-10-15T05:13:51.128Z,10.55
2018-10-15T05:14:51.105Z,10.47
2018-10-15T05:15:51.080Z,10.52
2018-10-15T05:16:51.058Z,10.53
2018-10-15T05:17:51.033Z,10.55
2018-10-15T05:18:51.010Z,10.52
2018-10-15T05:19:50.984Z,10.53
2018-10-15T05:20:50.987Z,10.53
2018-10-15T05:21:52.439Z,10.53
2018-10-15T05:22:50.918Z,10.47
2018-10-15T05:23:50.890Z,10.56
2018-10-15T05:24:50.866Z,10.56
2018-10-15T05:25:50.841Z,10.52
2018-10-15T05:26:50.818Z,10.56
2018-10-15T05:27:50.796Z,10.43
2018-10-15T05:28:50.771Z,10.42
2018-10-15T05:29:50.746Z,10.46
2018-10-15T05:30:50.843Z,10.46
2018-10-15T05:31:50.702Z,10.43
2018-10-15T05:32:50.674Z,10.39
2018-10-15T05:33:50.651Z,10.37
2018-10-15T05:34:50.627Z,10.43
2018-10-15T05:35:50.604Z,10.37
2018-10-15T05:36:50.670Z,10.33
2018-10-15T05:37:50.557Z,10.37
2018-10-15T05:38:50.532Z,10.36
2018-10-15T05:39:50.509Z,10.37
2018-10-15T05:40:50.484Z,10.32
2018-10-15T05:41:50.462Z,10.24
2018-10-15T05:42:50.437Z,10.26
2018-10-15T05:43:50.413Z,10.26
2018-10-15T05:44:50.389Z,10.24
2018-10-15T05:45:50.366Z,10.21
2018-10-15T05:46:50.376Z,10.17
2018-10-15T05:47:50.319Z,10.25
2018-10-15T05:48:50.294Z,10.14
2018-10-15T05:49:50.270Z,10.15
2018-10-15T05:50:50.248Z,10.18
2018-10-15T05:51:50.228Z,10.18
2018-10-15T05:52:50.202Z,10.19
2018-10-15T05:53:50.175Z,10.14
2018-10-15T05:54:50.152Z,10.14
2018-10-15T05:55:50.132Z,10.18
2018-10-15T05:56:50.104Z,10.15
2018-10-15T05:57:50.083Z,10.30
2018-10-15T05:58:50.058Z,10.24
2018-10-15T05:59:50.033Z,10.24
2018-10-15T06:00:50.011Z,10.28
2018-10-15T06:01:49.986Z,10.25
2018-10-15T06:02:49.962Z,10.28
2018-10-15T06:03:49.940Z,10.25
2018-10-15T06:04:49.916Z,10.26
2018-10-15T06:05:49.892Z,10.30
2018-10-15T06:06:49.867Z,10.28
2018-10-15T06:07:49.844Z,10.22
2018-10-15T06:08:49.820Z,10.24
2018-10-15T06:09:49.803Z,10.39
2018-10-15T06:10:49.772Z,10.28
2018-10-15T06:11:49.749Z,10.36
2018-10-15T06:12:49.740Z,10.33
2018-10-15T06:13:49.700Z,10.36
2018-10-15T06:14:49.677Z,10.37
2018-10-15T06:15:49.653Z,10.28
2018-10-15T06:16:49.630Z,10.26
2018-10-15T06:17:49.606Z,10.33
2018-10-15T06:18:49.583Z,10.30
2018-10-15T06:19:49.559Z,10.28
2018-10-15T06:20:49.537Z,10.21
2018-10-15T06:21:49.511Z,10.26
2018-10-15T06:22:49.561Z,10.30
2018-10-15T06:23:49.466Z,10.34
2018-10-15T06:24:49.440Z,10.36
2018-10-15T06:25:49.417Z,10.36
2018-10-15T06:26:49.393Z,10.33
2018-10-15T06:27:49.369Z,10.40
2018-10-15T06:28:49.345Z,10.33
2018-10-15T06:29:49.322Z,10.40
2018-10-15T06:30:50.050Z,10.39
2018-10-15T06:31:49.275Z,10.37
2018-10-15T06:32:49.251Z,10.53
2018-10-15T06:33:49.306Z,10.44
2018-10-15T06:34:49.205Z,10.46
2018-10-15T06:35:49.180Z,10.51
2018-10-15T06:36:49.157Z,10.52
2018-10-15T06:37:49.133Z,10.56
2018-10-15T06:38:49.110Z,10.47
2018-10-15T06:39:49.085Z,10.65
2018-10-15T06:40:49.062Z,10.62
2018-10-15T06:41:52.043Z,10.59
2018-10-15T06:42:49.016Z,10.65
2018-10-15T06:43:49.044Z,10.59
2018-10-15T06:44:48.969Z,10.71
2018-10-15T06:45:48.996Z,10.65
2018-10-15T06:46:48.921Z,10.80
2018-10-15T06:47:48.897Z,10.84
2018-10-15T06:48:48.889Z,10.86
2018-10-15T06:49:48.851Z,10.89
2018-10-15T06:50:48.828Z,11.01
2018-10-15T06:51:48.803Z,10.99
2018-10-15T06:52:48.781Z,10.98
2018-10-15T06:53:48.886Z,11.09
2018-10-15T06:54:48.735Z,11.14
2018-10-15T06:55:48.710Z,11.10
2018-10-15T06:56:48.688Z,11.16
2018-10-15T06:57:48.665Z,11.19
2018-10-15T06:58:48.644Z,11.19
2018-10-15T06:59:48.618Z,11.20
2018-10-15T07:00:48.595Z,11.27
2018-10-15T07:01:48.570Z,11.31
2018-10-15T07:02:48.549Z,11.28
2018-10-15T07:03:48.524Z,11.28
2018-10-15T07:04:48.501Z,11.46
2018-10-15T07:05:48.477Z,11.36
2018-10-15T07:06:48.456Z,11.50
2018-10-15T07:07:48.514Z,11.53
2018-10-15T07:08:48.408Z,11.49
2018-10-15T07:09:48.387Z,11.49
2018-10-15T07:10:48.366Z,11.53
2018-10-15T07:11:48.339Z,11.56
2018-10-15T07:12:48.315Z,11.67
2018-10-15T07:13:48.355Z,11.59
2018-10-15T07:14:48.369Z,11.68
2018-10-15T07:15:48.245Z,11.72
2018-10-15T07:16:48.223Z,11.75
2018-10-15T07:17:48.201Z,11.70
2018-10-15T07:18:48.177Z,11.72
2018-10-15T07:19:48.153Z,11.68
2018-10-15T07:20:48.186Z,11.77
2018-10-15T07:21:48.107Z,11.86
2018-10-15T07:22:48.087Z,11.93
2018-10-15T07:23:48.062Z,11.80
2018-10-15T07:24:49.539Z,11.85
2018-10-15T07:25:48.018Z,11.93
2018-10-15T07:26:47.992Z,11.89
2018-10-15T07:27:47.974Z,11.97
2018-10-15T07:28:47.945Z,11.94
2018-10-15T07:29:47.923Z,12.08
2018-10-15T07:30:48.651Z,12.09
2018-10-15T07:31:47.876Z,12.13
2018-10-15T07:32:47.854Z,12.16
2018-10-15T07:33:47.835Z,12.24
2018-10-15T07:34:47.808Z,12.21
2018-10-15T07:35:47.785Z,12.23
2018-10-15T07:36:47.762Z,12.20
2018-10-15T07:37:47.740Z,12.30
2018-10-15T07:38:47.718Z,12.37
2018-10-15T07:39:47.695Z,12.39
2018-10-15T07:40:47.671Z,12.51
2018-10-15T07:41:47.648Z,12.45
2018-10-15T07:42:47.625Z,12.48
2018-10-15T07:43:47.602Z,12.54
2018-10-15T07:44:47.580Z,12.57
2018-10-15T07:45:47.557Z,12.70
2018-10-15T07:46:47.571Z,12.60
2018-10-15T07:47:47.510Z,12.64
2018-10-15T07:48:47.490Z,12.78
2018-10-15T07:49:47.466Z,12.79
2018-10-15T07:50:47.452Z,12.79
2018-10-15T07:51:48.173Z,12.79
2018-10-15T07:52:47.401Z,12.95
2018-10-15T07:53:47.429Z,12.95
2018-10-15T07:54:47.353Z,12.96
2018-10-15T07:55:47.339Z,13.00
2018-10-15T07:56:47.307Z,13.02
2018-10-15T07:57:47.285Z,13.12
2018-10-15T07:58:47.263Z,13.11
2018-10-15T07:59:47.240Z,13.17
2018-10-15T08:00:47.217Z,13.20
2018-10-15T08:01:47.195Z,13.15
2018-10-15T08:02:47.173Z,13.32
2018-10-15T08:03:47.149Z,13.27
2018-10-15T08:04:47.127Z,13.29
2018-10-15T08:05:47.194Z,13.33
2018-10-15T08:06:47.084Z,13.36
2018-10-15T08:07:47.059Z,13.38
2018-10-15T08:08:47.142Z,13.47
2018-10-15T08:09:47.016Z,13.46
2018-10-15T08:10:46.994Z,13.51
2018-10-15T08:11:46.971Z,13.46
2018-10-15T08:12:47.700Z,13.52
2018-10-15T08:13:46.928Z,13.51
2018-10-15T08:14:47.062Z,13.49
2018-10-15T08:15:46.966Z,13.41
2018-10-15T08:16:46.860Z,13.46
2018-10-15T08:17:46.840Z,13.46
2018-10-15T08:18:46.817Z,13.56
2018-10-15T08:19:46.794Z,13.59
2018-10-15T08:20:46.837Z,13.69
2018-10-15T08:21:46.748Z,13.76
2018-10-15T08:22:46.733Z,13.74
2018-10-15T08:23:46.707Z,13.84
2018-10-15T08:24:46.687Z,13.81
2018-10-15T08:25:46.661Z,13.80
2018-10-15T08:26:46.638Z,13.88
2018-10-15T08:27:46.661Z,13.84
2018-10-15T08:28:46.593Z,14.01
2018-10-15T08:29:46.571Z,13.99
2018-10-15T08:30:46.549Z,14.16
2018-10-15T08:31:46.526Z,14.13
2018-10-15T08:32:46.506Z,14.17
2018-10-15T08:33:46.484Z,14.14
2018-10-15T08:34:46.507Z,14.27
2018-10-15T08:35:46.437Z,14.21
2018-10-15T08:36:46.416Z,14.31
2018-10-15T08:37:46.396Z,14.31
2018-10-15T08:38:46.373Z,14.38
2018-10-15T08:39:46.350Z,14.38
2018-10-15T08:40:46.328Z,14.42
2018-10-15T08:41:46.380Z,14.47
2018-10-15T08:42:46.284Z,14.52
2018-10-15T08:43:46.262Z,14.47
2018-10-15T08:44:46.241Z,14.56
2018-10-15T08:45:46.256Z,14.64
2018-10-15T08:46:46.197Z,14.72
2018-10-15T08:47:46.180Z,14.74
2018-10-15T08:48:46.153Z,14.75
2018-10-15T08:49:46.187Z,14.71
2018-10-15T08:50:46.129Z,14.86
2018-10-15T08:51:46.088Z,14.87
2018-10-15T08:52:46.135Z,14.87
2018-10-15T08:53:46.047Z,14.90
2018-10-15T08:54:46.026Z,14.99
2018-10-15T08:55:46.028Z,15.03
2018-10-15T08:56:45.995Z,15.12
2018-10-15T08:57:45.959Z,15.13
2018-10-15T08:58:45.937Z,15.15
2018-10-15T08:59:45.914Z,15.26
2018-10-15T09:00:45.900Z,15.26
2018-10-15T09:01:45.947Z,15.24
2018-10-15T09:02:45.874Z,15.24
2018-10-15T09:03:45.866Z,15.39
2018-10-15T09:04:45.816Z,15.48
2018-10-15T09:05:45.786Z,15.48
2018-10-15T09:06:45.773Z,15.51
2018-10-15T09:07:45.972Z,15.46
2018-10-15T09:08:45.909Z,15.51
2018-10-15T09:09:45.728Z,15.61
2018-10-15T09:10:45.738Z,15.57
2018-10-15T09:11:45.658Z,15.60
2018-10-15T09:12:45.793Z,15.74
2018-10-15T09:13:45.616Z,15.72
2018-10-15T09:14:45.715Z,15.79
2018-10-15T09:15:45.575Z,15.82
2018-10-15T09:16:45.550Z,15.86
2018-10-15T09:17:45.583Z,15.76
2018-10-15T09:18:45.512Z,15.88
2018-10-15T09:19:45.539Z,15.88
2018-10-15T09:20:45.511Z,15.96
2018-10-15T09:21:45.470Z,15.92
2018-10-15T09:22:46.925Z,15.99
2018-10-15T09:23:45.422Z,15.94
2018-10-15T09:24:45.389Z,15.96
2018-10-15T09:25:45.398Z,16.07
2018-10-15T09:26:45.472Z,16.00
2018-10-15T09:27:45.397Z,16.04
2018-10-15T09:28:45.298Z,16.00
2018-10-15T09:29:45.284Z,16.01
2018-10-15T09:30:45.307Z,16.20
2018-10-15T09:31:45.232Z,16.07
2018-10-15T09:32:45.230Z,16.12
2018-10-15T09:33:45.191Z,16.20
2018-10-15T09:34:45.229Z,16.20
2018-10-15T09:35:45.149Z,16.16
2018-10-15T09:36:45.150Z,16.30
2018-10-15T09:37:45.167Z,16.38
2018-10-15T09:38:45.242Z,16.42
2018-10-15T09:39:45.064Z,16.34
2018-10-15T09:40:45.064Z,16.41
2018-10-15T09:41:45.023Z,16.34
2018-10-15T09:42:45.066Z,16.33
2018-10-15T09:43:44.984Z,16.44
2018-10-15T09:44:45.759Z,16.45
2018-10-15T09:45:45.095Z,16.52
2018-10-15T09:46:44.981Z,16.60
2018-10-15T09:47:44.897Z,16.65
2018-10-15T09:48:44.969Z,16.80
2018-10-15T09:49:44.887Z,16.80
2018-10-15T09:50:44.934Z,16.80
2018-10-15T09:51:44.814Z,16.80
2018-10-15T09:52:44.830Z,16.89
2018-10-15T09:53:44.773Z,16.90
2018-10-15T09:54:44.759Z,16.89
2018-10-15T09:55:44.730Z,17.03
2018-10-15T09:56:44.730Z,17.07
2018-10-15T09:57:44.694Z,17.11
2018-10-15T09:58:44.725Z,17.13
2018-10-15T09:59:44.650Z,17.13
2018-10-15T10:00:44.649Z,17.11
2018-10-15T10:01:44.649Z,17.07
2018-10-15T10:02:44.619Z,17.08
2018-10-15T10:03:44.567Z,17.03
2018-10-15T10:04:44.555Z,17.13
2018-10-15T10:05:44.525Z,17.17
2018-10-15T10:06:46.027Z,17.28
2018-10-15T10:07:44.519Z,17.35
2018-10-15T10:08:44.494Z,17.50
2018-10-15T10:09:44.446Z,17.57
2018-10-15T10:10:44.458Z,17.55
2018-10-15T10:11:44.403Z,17.69
2018-10-15T10:12:44.419Z,17.74
2018-10-15T10:13:44.364Z,17.69
2018-10-15T10:14:44.397Z,17.73
2018-10-15T10:15:44.320Z,17.78
2018-10-15T10:16:44.307Z,17.73
2018-10-15T10:17:44.554Z,17.82
2018-10-15T10:18:44.268Z,17.95
2018-10-15T10:19:44.239Z,18.04
2018-10-15T10:20:44.252Z,18.09
2018-10-15T10:21:44.235Z,18.06
2018-10-15T10:22:44.216Z,18.15
2018-10-15T10:23:50.188Z,18.03
2018-10-15T10:24:44.240Z,18.03
2018-10-15T10:25:44.150Z,18.15
2018-10-15T10:26:44.123Z,18.18
2018-10-15T10:27:44.078Z,18.17
2018-10-15T10:28:44.329Z,18.13
2018-10-15T10:29:44.885Z,18.15
2018-10-15T10:30:44.044Z,18.18
2018-10-15T10:31:43.999Z,18.18
2018-10-15T10:32:43.996Z,18.33
2018-10-15T10:33:43.961Z,18.36
2018-10-15T10:34:43.956Z,18.68
2018-10-15T10:35:43.930Z,18.62
2018-10-15T10:36:43.945Z,18.62
2018-10-15T10:37:43.881Z,18.72
2018-10-15T10:38:43.870Z,18.62
2018-10-15T10:39:43.870Z,18.74
2018-10-15T10:40:43.822Z,18.84
2018-10-15T10:41:43.945Z,18.74
2018-10-15T10:42:43.783Z,18.65
2018-10-15T10:43:43.761Z,18.72
2018-10-15T10:44:43.762Z,18.80
2018-10-15T10:45:45.321Z,18.94
2018-10-15T10:46:43.703Z,18.97
2018-10-15T10:47:43.685Z,18.95
2018-10-15T10:48:43.664Z,18.95
2018-10-15T10:49:43.645Z,18.90
2018-10-15T10:50:43.625Z,18.86
2018-10-15T10:51:45.857Z,18.82
2018-10-15T10:52:43.585Z,18.97
2018-10-15T10:53:43.568Z,18.91
2018-10-15T10:54:43.548Z,18.87
2018-10-15T10:55:43.528Z,18.91
2018-10-15T10:56:43.508Z,19.06
2018-10-15T10:57:44.243Z,19.10
2018-10-15T10:58:43.542Z,19.06
2018-10-15T10:59:43.450Z,19.10
2018-10-15T11:00:43.430Z,19.24
2018-10-15T11:01:43.412Z,19.17
2018-10-15T11:02:43.458Z,19.17
2018-10-15T11:03:43.372Z,19.17
2018-10-15T11:04:43.353Z,19.24
2018-10-15T11:05:43.453Z,19.18
2018-10-15T11:06:43.314Z,19.31
2018-10-15T11:07:43.294Z,19.28
2018-10-15T11:08:43.275Z,19.32
2018-10-15T11:09:43.255Z,19.28
2018-10-15T11:10:43.236Z,19.42
2018-10-15T11:11:43.219Z,19.38
2018-10-15T11:12:43.249Z,19.38
2018-10-15T11:13:43.180Z,19.40
2018-10-15T11:14:43.161Z,19.42
2018-10-15T11:15:43.139Z,19.46
2018-10-15T11:16:43.121Z,19.51
2018-10-15T11:17:43.105Z,19.54
2018-10-15T11:18:43.157Z,19.58
2018-10-15T11:19:43.064Z,19.61
2018-10-15T11:20:43.045Z,19.70
2018-10-15T11:21:43.027Z,19.68
2018-10-15T11:22:43.011Z,19.69
2018-10-15T11:23:42.987Z,19.86
2018-10-15T11:24:42.968Z,19.95
2018-10-15T11:25:42.991Z,20.03
2018-10-15T11:26:42.931Z,20.03
2018-10-15T11:27:42.911Z,20.08
2018-10-15T11:28:42.892Z,20.06
2018-10-15T11:29:42.936Z,20.03
2018-10-15T11:30:42.855Z,20.15
2018-10-15T11:31:42.835Z,20.15
2018-10-15T11:32:42.816Z,20.12
2018-10-15T11:33:42.797Z,20.25
2018-10-15T11:34:42.859Z,20.21
2018-10-15T11:35:42.767Z,20.35
2018-10-15T11:36:42.741Z,20.25
2018-10-15T11:37:42.725Z,20.24
2018-10-15T11:38:42.710Z,20.28
2018-10-15T11:39:42.686Z,20.34
2018-10-15T11:40:42.669Z,20.35
2018-10-15T11:41:42.647Z,20.41
2018-10-15T11:42:42.629Z,20.39
2018-10-15T11:43:42.674Z,20.34
2018-10-15T11:44:42.591Z,20.47
2018-10-15T11:45:42.573Z,20.53
2018-10-15T11:46:42.675Z,20.64
2018-10-15T11:47:42.536Z,20.53
2018-10-15T11:48:42.517Z,20.68
2018-10-15T11:49:42.543Z,20.64
2018-10-15T11:50:42.485Z,20.53
2018-10-15T11:51:42.461Z,20.61
2018-10-15T11:52:42.442Z,20.64
2018-10-15T11:53:42.572Z,20.80
2018-10-15T11:54:42.407Z,20.91
2018-10-15T11:55:42.387Z,20.87
2018-10-15T11:56:42.369Z,20.89
2018-10-15T11:57:42.353Z,20.98
2018-10-15T11:58:42.350Z,21.04
2018-10-15T11:59:42.313Z,21.20
2018-10-15T12:00:42.296Z,21.11
2018-10-15T12:01:42.277Z,21.26
2018-10-15T12:02:42.353Z,21.19
2018-10-15T12:03:42.240Z,21.16
2018-10-15T12:04:42.224Z,21.05
2018-10-15T12:05:42.208Z,21.13
2018-10-15T12:06:42.187Z,21.19
2018-10-15T12:07:42.168Z,21.27
2018-10-15T12:08:42.151Z,21.27
2018-10-15T12:09:42.133Z,21.26
2018-10-15T12:10:42.114Z,21.44
2018-10-15T12:11:42.095Z,21.39
2018-10-15T12:12:42.077Z,21.53
2018-10-15T12:13:42.060Z,21.53
2018-10-15T12:14:42.043Z,21.74
2018-10-15T12:15:42.022Z,21.75
2018-10-15T12:16:42.045Z,21.79
2018-10-15T12:17:41.986Z,21.83
2018-10-15T12:18:41.971Z,21.78
2018-10-15T12:19:41.951Z,21.72
2018-10-15T12:20:41.933Z,21.74
2018-10-15T12:21:41.915Z,21.82
2018-10-15T12:22:41.991Z,21.82
2018-10-15T12:23:41.878Z,21.82
2018-10-15T12:24:41.862Z,21.82
2018-10-15T12:25:41.846Z,21.76
2018-10-15T12:26:41.825Z,21.78
2018-10-15T12:27:41.807Z,21.82
2018-10-15T12:28:41.790Z,21.79
2018-10-15T12:29:41.846Z,21.83
2018-10-15T12:30:41.754Z,21.99
2018-10-15T12:31:41.739Z,22.07
2018-10-15T12:32:41.718Z,22.09
2018-10-15T12:33:41.701Z,22.10
2018-10-15T12:34:41.683Z,22.04
2018-10-15T12:35:41.665Z,22.10
2018-10-15T12:36:41.647Z,22.06
2018-10-15T12:37:42.380Z,22.13
2018-10-15T12:38:41.613Z,22.25
2018-10-15T12:39:41.596Z,22.29
2018-10-15T12:40:41.576Z,22.44
2018-10-15T12:41:41.560Z,22.52
2018-10-15T12:42:41.541Z,22.64
2018-10-15T12:43:41.523Z,22.57
2018-10-15T12:44:41.512Z,22.47
2018-10-15T12:45:41.489Z,22.62
2018-10-15T12:46:41.472Z,22.60
2018-10-15T12:47:41.466Z,22.62
2018-10-15T12:48:42.186Z,22.72
2018-10-15T12:49:41.419Z,22.71
2018-10-15T12:50:41.402Z,22.72
2018-10-15T12:51:41.384Z,22.65
2018-10-15T12:52:41.367Z,22.72
2018-10-15T12:53:41.498Z,22.71
2018-10-15T12:54:41.332Z,22.69
2018-10-15T12:55:41.314Z,22.50
2018-10-15T12:56:41.296Z,22.52